Time;durP1;ratioP1;P1;durP2;ratioP2;P2;SDS_P1;SDS_P2;PMS_P1;PMS_P2;Temp;Humidity;BMP_temperature;BMP_pressure;BME280_temperature;BME280_humidity;BME280_pressure;Samples;Min_cycle;Max_cycle;Signal;HPM_P1;HPM_P2
2022/07/06 00:01:33;;;;;;;0.00;0.00;;;12.60;99.90;;;;;;5055006;28;20499;-72
2022/07/06 00:03:58;;;;;;;0.00;0.00;;;12.60;99.90;;;;;;5055108;28;20041;-74
2022/07/06 00:06:24;;;;;;;1.35;0.43;;;12.60;99.90;;;;;;5054964;28;20045;-73
2022/07/06 00:08:50;;;;;;;0.00;0.00;;;12.60;99.90;;;;;;5054782;28;20041;-73
2022/07/06 00:11:15;;;;;;;0.00;0.00;;;12.60;99.90;;;;;;5054680;28;20045;-74
2022/07/06 00:13:41;;;;;;;0.00;0.00;;;12.60;99.90;;;;;;5054789;28;20098;-73
2022/07/06 00:16:07;;;;;;;0.00;0.00;;;12.50;99.90;;;;;;5054536;28;20037;-72
2022/07/06 00:18:32;;;;;;;0.52;0.52;;;12.50;99.90;;;;;;5054752;28;20045;-73
2022/07/06 00:20:58;;;;;;;0.95;0.45;;;12.50;99.90;;;;;;5054532;28;20037;-73
2022/07/06 00:23:23;;;;;;;0.00;0.00;;;12.50;99.90;;;;;;5054523;28;20090;-74
2022/07/06 00:25:49;;;;;;;0.00;0.00;;;12.50;99.90;;;;;;5054598;28;20521;-74
2022/07/06 00:28:15;;;;;;;0.03;0.00;;;12.50;99.90;;;;;;5054372;28;20380;-74
2022/07/06 00:30:41;;;;;;;0.05;0.05;;;12.40;99.90;;;;;;5054261;28;20048;-73
2022/07/06 00:33:07;;;;;;;0.00;0.00;;;12.40;99.90;;;;;;5054343;28;20151;-74
2022/07/06 00:35:32;;;;;;;0.00;0.00;;;12.40;99.90;;;;;;5054482;28;20124;-74
2022/07/06 00:37:58;;;;;;;0.00;0.00;;;12.40;99.90;;;;;;5054123;28;20422;-74
2022/07/06 00:40:24;;;;;;;0.10;0.10;;;12.40;99.90;;;;;;5053716;28;20045;-74
2022/07/06 00:42:50;;;;;;;0.00;0.00;;;12.50;99.90;;;;;;5054098;28;20045;-74
2022/07/06 00:45:17;;;;;;;0.05;0.03;;;12.40;99.90;;;;;;5053942;28;20049;-74
2022/07/06 00:47:44;;;;;;;0.00;0.00;;;12.40;99.90;;;;;;5053636;28;20041;-74
2022/07/06 00:50:14;;;;;;;0.00;0.00;;;12.40;99.90;;;;;;5054097;28;20067;-74
2022/07/06 00:52:45;;;;;;;0.00;0.00;;;12.30;99.90;;;;;;5053916;28;20144;-74
2022/07/06 00:55:12;;;;;;;0.00;0.00;;;12.40;99.90;;;;;;5053844;28;20083;-74
2022/07/06 00:57:38;;;;;;;0.00;0.00;;;12.30;99.90;;;;;;5053847;28;20057;-74
2022/07/06 01:00:06;;;;;;;0.00;0.00;;;12.30;99.90;;;;;;5053878;28;20407;-74
2022/07/06 01:02:32;;;;;;;0.00;0.00;;;12.40;99.90;;;;;;5053735;28;20059;-73
2022/07/06 01:04:58;;;;;;;0.00;0.00;;;12.40;99.90;;;;;;5053731;28;20415;-74
2022/07/06 01:07:25;;;;;;;0.32;0.32;;;12.40;99.90;;;;;;5053608;28;20049;-73
2022/07/06 01:09:50;;;;;;;2.17;0.75;;;12.40;99.90;;;;;;5053533;28;20033;-74
2022/07/06 01:12:18;;;;;;;0.00;0.00;;;12.40;99.90;;;;;;5053358;28;20033;-74
2022/07/06 01:14:45;;;;;;;0.00;0.00;;;12.40;99.90;;;;;;5053468;28;20045;-74
2022/07/06 01:17:11;;;;;;;0.00;0.00;;;12.40;99.90;;;;;;5053674;28;20395;-74
2022/07/06 01:19:36;;;;;;;0.10;0.10;;;12.40;99.90;;;;;;5053435;28;20029;-74
2022/07/06 01:22:02;;;;;;;0.10;0.10;;;12.50;99.90;;;;;;5053332;28;20398;-74
2022/07/06 01:24:28;;;;;;;0.00;0.00;;;12.50;99.90;;;;;;5053210;28;20106;-74
2022/07/06 01:26:54;;;;;;;0.43;0.20;;;12.40;99.90;;;;;;5053167;28;20770;-74
2022/07/06 01:29:19;;;;;;;0.00;0.00;;;12.50;99.90;;;;;;5053345;28;20060;-74
2022/07/06 01:31:50;;;;;;;0.00;0.00;;;12.40;99.90;;;;;;5053024;28;20045;-74
2022/07/06 01:34:17;;;;;;;0.10;0.10;;;12.40;99.90;;;;;;5053054;28;20126;-74
2022/07/06 01:36:43;;;;;;;0.00;0.00;;;12.40;99.90;;;;;;5052994;28;20056;-74
2022/07/06 01:39:09;;;;;;;0.00;0.00;;;13.60;99.90;;;;;;5053045;28;20059;-73
2022/07/06 01:41:35;;;;;;;0.00;0.00;;;12.40;99.90;;;;;;5052833;28;20072;-74
2022/07/06 01:44:01;;;;;;;0.00;0.00;;;13.70;99.90;;;;;;5053251;28;20076;-74
2022/07/06 01:46:27;;;;;;;0.08;0.08;;;12.40;99.90;;;;;;5052750;28;20084;-74
2022/07/06 01:48:52;;;;;;;0.10;0.10;;;12.40;99.90;;;;;;5052984;28;20073;-73
2022/07/06 01:51:18;;;;;;;0.00;0.00;;;12.30;99.90;;;;;;5052868;28;20041;-73
2022/07/06 01:53:44;;;;;;;0.00;0.00;;;12.30;99.90;;;;;;5052028;28;20037;-74
2022/07/06 01:56:10;;;;;;;0.00;0.00;;;12.40;99.90;;;;;;5052315;28;20041;-74
2022/07/06 01:58:36;;;;;;;0.00;0.00;;;12.40;99.90;;;;;;5052978;28;20048;-74
2022/07/06 02:01:07;;;;;;;0.10;0.10;;;12.40;99.90;;;;;;5052832;28;20048;-74
2022/07/06 02:03:33;;;;;;;0.00;0.00;;;12.40;99.90;;;;;;5052647;28;20041;-73
2022/07/06 02:05:58;;;;;;;0.00;0.00;;;12.40;99.90;;;;;;5053009;28;20506;-74
2022/07/06 02:08:24;;;;;;;0.00;0.00;;;12.40;99.90;;;;;;5052509;28;20049;-74
2022/07/06 02:10:49;;;;;;;0.00;0.00;;;12.40;99.90;;;;;;5052621;28;20041;-73
2022/07/06 02:13:15;;;;;;;0.00;0.00;;;12.40;99.90;;;;;;5052753;28;20055;-74
2022/07/06 02:15:41;;;;;;;0.08;0.08;;;12.40;99.90;;;;;;5052701;28;20084;-74
2022/07/06 02:18:07;;;;;;;0.00;0.00;;;12.40;99.90;;;;;;5052658;28;20063;-74
2022/07/06 02:20:32;;;;;;;0.63;0.47;;;12.50;99.90;;;;;;5052668;28;20049;-73
2022/07/06 02:22:58;;;;;;;10.40;0.40;;;12.40;99.90;;;;;;5052268;28;20056;-74
2022/07/06 02:25:23;;;;;;;0.00;0.00;;;12.40;99.90;;;;;;5052803;28;20037;-73
2022/07/06 02:27:49;;;;;;;0.00;0.00;;;12.50;99.90;;;;;;5034646;28;20045;-73
2022/07/06 02:30:15;;;;;;;0.08;0.08;;;12.50;99.90;;;;;;5052508;28;20455;-73
2022/07/06 02:32:40;;;;;;;0.00;0.00;;;12.50;99.90;;;;;;5052575;28;20045;-73
2022/07/06 02:35:06;;;;;;;0.00;0.00;;;12.50;99.90;;;;;;5052355;28;20037;-73
2022/07/06 02:37:32;;;;;;;0.10;0.10;;;12.50;99.90;;;;;;5052267;28;20480;-74
2022/07/06 02:39:57;;;;;;;0.00;0.00;;;12.50;99.90;;;;;;5052169;28;20052;-73
2022/07/06 02:42:23;;;;;;;0.00;0.00;;;12.50;99.90;;;;;;5052304;28;20155;-74
2022/07/06 02:44:48;;;;;;;3.83;1.27;;;12.50;99.90;;;;;;5052402;28;20138;-73
2022/07/06 02:47:14;;;;;;;0.00;0.00;;;12.50;99.90;;;;;;5052295;28;20096;-74
2022/07/06 02:49:39;;;;;;;0.00;0.00;;;12.50;99.90;;;;;;5052256;28;20045;-73
2022/07/06 02:52:05;;;;;;;0.10;0.10;;;12.50;99.90;;;;;;5052216;28;20514;-73
2022/07/06 02:54:31;;;;;;;0.55;0.30;;;12.50;99.90;;;;;;5052047;28;20055;-73
2022/07/06 02:56:56;;;;;;;0.08;0.05;;;12.50;99.90;;;;;;5052216;28;20045;-74
2022/07/06 02:59:22;;;;;;;0.00;0.00;;;12.40;99.90;;;;;;5052112;28;20080;-74
2022/07/06 03:01:48;;;;;;;0.00;0.00;;;12.40;99.90;;;;;;5034193;28;20406;-74
2022/07/06 03:04:13;;;;;;;0.60;0.30;;;12.30;99.90;;;;;;5053964;28;20041;-73
2022/07/06 03:06:39;;;;;;;0.20;0.20;;;12.30;99.90;;;;;;5055754;28;20037;-74
2022/07/06 03:09:04;;;;;;;0.00;0.00;;;12.10;99.90;;;;;;5055804;28;20156;-74
2022/07/06 03:11:30;;;;;;;0.00;0.00;;;12.10;99.90;;;;;;5056121;28;20049;-74
2022/07/06 03:13:55;;;;;;;0.00;0.00;;;11.90;99.90;;;;;;5037988;28;20041;-74
2022/07/06 03:16:21;;;;;;;0.00;0.00;;;11.90;99.90;;;;;;5055533;28;20049;-73
2022/07/06 03:18:46;;;;;;;0.00;0.00;;;11.90;99.90;;;;;;5055576;28;20041;-74
2022/07/06 03:21:12;;;;;;;0.00;0.00;;;11.80;99.90;;;;;;5055409;28;20091;-73
2022/07/06 03:23:37;;;;;;;0.57;0.17;;;11.80;99.90;;;;;;5055408;28;20159;-73
2022/07/06 03:26:03;;;;;;;0.00;0.00;;;11.70;99.90;;;;;;5055729;28;20049;-73
2022/07/06 03:28:29;;;;;;;0.03;0.03;;;11.70;99.90;;;;;;5055380;28;20040;-73
2022/07/06 03:30:54;;;;;;;0.00;0.00;;;11.60;99.90;;;;;;5055349;28;20044;-73
2022/07/06 03:33:20;;;;;;;0.52;0.52;;;11.50;99.90;;;;;;5055203;28;20098;-74
2022/07/06 03:35:45;;;;;;;0.00;0.00;;;11.40;99.90;;;;;;5055269;28;20041;-73
2022/07/06 03:38:11;;;;;;;0.00;0.00;;;11.20;99.90;;;;;;5055132;28;20048;-73
2022/07/06 03:40:36;;;;;;;0.00;0.00;;;11.10;99.90;;;;;;5055440;28;20060;-74
2022/07/06 03:43:02;;;;;;;0.00;0.00;;;11.00;99.90;;;;;;5055295;28;20044;-74
2022/07/06 03:45:28;;;;;;;0.00;0.00;;;10.90;99.90;;;;;;5055291;28;20049;-73
2022/07/06 03:47:53;;;;;;;0.00;0.00;;;10.80;99.90;;;;;;5054968;28;20051;-72
2022/07/06 03:50:19;;;;;;;0.00;0.00;;;10.70;99.90;;;;;;5055053;28;20044;-74
2022/07/06 03:52:44;;;;;;;0.00;0.00;;;10.60;99.90;;;;;;5054688;28;20041;-73
2022/07/06 03:55:11;;;;;;;0.00;0.00;;;10.60;99.90;;;;;;5055189;28;20041;-73
2022/07/06 03:57:40;;;;;;;0.43;0.10;;;10.40;99.90;;;;;;5054900;28;20526;-74
2022/07/06 04:00:07;;;;;;;0.10;0.08;;;10.40;99.90;;;;;;5054852;28;20045;-73
2022/07/06 04:02:33;;;;;;;0.88;0.25;;;10.40;99.90;;;;;;5054852;28;20114;-73
2022/07/06 04:04:59;;;;;;;0.00;0.00;;;10.30;99.90;;;;;;5054607;28;20503;-73
2022/07/06 04:07:25;;;;;;;0.00;0.00;;;10.30;99.90;;;;;;5054603;28;20037;-74
2022/07/06 04:09:51;;;;;;;0.00;0.00;;;10.20;99.90;;;;;;5054910;28;20041;-73
2022/07/06 04:12:16;;;;;;;0.22;0.15;;;10.20;99.90;;;;;;5054761;28;20040;-73
2022/07/06 04:14:42;;;;;;;0.80;0.65;;;10.20;99.90;;;;;;5054249;28;20048;-73
2022/07/06 04:19:52;;;;;;;0.20;0.20;;;10.30;99.90;;;;;;5054512;28;20056;-73
2022/07/06 04:22:17;;;;;;;0.20;0.20;;;10.30;99.90;;;;;;5054568;28;20712;-73
2022/07/06 04:24:43;;;;;;;0.00;0.00;;;10.40;99.90;;;;;;5054488;28;20509;-73
2022/07/06 04:27:08;;;;;;;0.00;0.00;;;10.50;99.90;;;;;;5054426;28;20041;-73
2022/07/06 04:29:34;;;;;;;0.00;0.00;;;10.60;99.90;;;;;;5054372;28;20049;-73
2022/07/06 04:31:59;;;;;;;0.10;0.05;;;10.70;99.90;;;;;;5054496;28;20041;-73
2022/07/06 04:34:25;;;;;;;0.43;0.22;;;10.70;99.90;;;;;;5054110;28;20037;-73
2022/07/06 04:36:50;;;;;;;0.10;0.10;;;10.80;99.90;;;;;;5054301;28;20446;-73
2022/07/06 04:39:16;;;;;;;0.10;0.10;;;10.90;99.90;;;;;;5054299;28;20091;-73
2022/07/06 04:41:41;;;;;;;0.08;0.08;;;11.20;99.90;;;;;;5054099;28;20041;-73
2022/07/06 04:44:07;;;;;;;0.15;0.15;;;11.50;99.90;;;;;;5053989;28;20048;-73
2022/07/06 04:46:33;;;;;;;0.13;0.10;;;11.80;99.90;;;;;;5054008;28;20052;-73
2022/07/06 04:48:58;;;;;;;0.00;0.00;;;12.30;99.90;;;;;;5053860;28;20037;-73
2022/07/06 04:51:24;;;;;;;0.00;0.00;;;12.70;99.90;;;;;;5036185;28;20095;-73
2022/07/06 04:53:49;;;;;;;0.15;0.15;;;12.30;99.90;;;;;;5053689;28;20170;-74
2022/07/06 04:56:15;;;;;;;0.05;0.05;;;13.30;99.90;;;;;;5053837;28;20098;-73
2022/07/06 04:58:40;;;;;;;0.00;0.00;;;13.50;99.90;;;;;;5053863;28;20056;-73
2022/07/06 05:01:06;;;;;;;0.00;0.00;;;13.50;99.90;;;;;;5053435;28;20045;-73
2022/07/06 05:03:35;;;;;;;0.10;0.10;;;13.60;99.90;;;;;;5053445;28;20126;-74
2022/07/06 05:06:00;;;;;;;0.00;0.00;;;13.60;99.90;;;;;;5053725;28;20591;-74
2022/07/06 05:08:26;;;;;;;0.17;0.17;;;13.70;99.90;;;;;;5050553;28;20123;-74
2022/07/06 05:10:51;;;;;;;0.05;0.05;;;13.70;99.90;;;;;;5050915;28;20395;-73
2022/07/06 05:13:18;;;;;;;0.75;0.30;;;13.70;99.90;;;;;;5050437;28;20094;-74
2022/07/06 05:15:43;;;;;;;0.00;0.00;;;13.70;99.90;;;;;;5050576;28;20049;-74
2022/07/06 05:18:09;;;;;;;0.00;0.00;;;13.70;99.90;;;;;;5050277;28;20163;-74
2022/07/06 05:20:34;;;;;;;0.00;0.00;;;13.70;99.90;;;;;;5050478;28;20446;-74
2022/07/06 05:23:00;;;;;;;0.00;0.00;;;13.80;99.90;;;;;;5050238;28;20403;-74
2022/07/06 05:25:25;;;;;;;0.05;0.05;;;13.80;99.90;;;;;;5050135;28;20067;-74
2022/07/06 05:27:51;;;;;;;0.00;0.00;;;14.00;99.90;;;;;;5052258;28;20102;-74
2022/07/06 05:30:17;;;;;;;0.00;0.00;;;14.10;99.90;;;;;;5053170;28;20049;-74
2022/07/06 05:32:42;;;;;;;0.10;0.10;;;14.30;99.90;;;;;;5052850;28;20040;-73
2022/07/06 05:35:08;;;;;;;1.85;1.55;;;14.40;99.90;;;;;;5053285;28;20095;-73
2022/07/06 05:37:34;;;;;;;0.20;0.10;;;14.40;99.90;;;;;;5053049;28;20068;-73
2022/07/06 05:39:59;;;;;;;1.65;0.47;;;14.50;99.90;;;;;;5053134;28;20037;-73
2022/07/06 05:42:25;;;;;;;0.05;0.03;;;14.60;99.90;;;;;;5053173;28;20093;-73
2022/07/06 05:44:54;;;;;;;0.00;0.00;;;14.60;99.90;;;;;;5053040;28;20453;-73
2022/07/06 05:50:14;;;;;;;0.00;0.00;;;14.70;99.90;;;;;;5053244;28;20121;-74
2022/07/06 05:52:44;;;;;;;7.60;1.60;;;14.70;99.90;;;;;;5052847;28;20507;-73
2022/07/06 05:55:11;;;;;;;0.00;0.00;;;14.80;99.90;;;;;;5052946;28;20041;-73
2022/07/06 05:57:37;;;;;;;0.03;0.03;;;14.60;99.90;;;;;;5053090;28;20057;-74
2022/07/06 06:00:04;;;;;;;0.00;0.00;;;14.40;99.90;;;;;;5053058;28;20052;-73
2022/07/06 06:02:41;;;;;;;0.00;0.00;;;14.10;99.90;;;;;;5052170;28;20041;-74
2022/07/06 06:05:08;;;;;;;0.75;0.35;;;13.90;99.90;;;;;;5049112;28;20045;-74
2022/07/06 06:07:38;;;;;;;0.00;0.00;;;13.90;99.90;;;;;;5052421;28;20037;-74
2022/07/06 06:10:06;;;;;;;0.20;0.20;;;14.00;99.90;;;;;;5049923;28;20166;-74
2022/07/06 06:12:32;;;;;;;0.00;0.00;;;14.10;99.90;;;;;;5052926;28;20095;-74
2022/07/06 06:14:58;;;;;;;0.75;0.50;;;14.30;99.90;;;;;;5052736;28;20041;-74
2022/07/06 06:17:23;;;;;;;0.65;0.25;;;14.70;99.90;;;;;;5052946;28;20048;-74
2022/07/06 06:19:49;;;;;;;0.00;0.00;;;15.10;99.90;;;;;;5052552;28;20048;-74
2022/07/06 06:22:14;;;;;;;0.00;0.00;;;15.40;99.90;;;;;;5052476;28;20091;-74
2022/07/06 06:24:40;;;;;;;0.00;0.00;;;15.50;99.90;;;;;;5051938;28;20049;-73
2022/07/06 06:27:06;;;;;;;0.08;0.08;;;15.40;99.90;;;;;;5052127;28;20542;-74
2022/07/06 06:29:32;;;;;;;0.43;0.28;;;15.40;99.90;;;;;;5052230;28;20048;-74
2022/07/06 06:31:58;;;;;;;1.38;0.75;;;15.40;99.90;;;;;;5051884;28;20037;-74
2022/07/06 06:34:23;;;;;;;0.47;0.45;;;15.30;99.90;;;;;;5051998;28;20041;-73
2022/07/06 06:36:49;;;;;;;0.08;0.00;;;15.10;99.90;;;;;;5051580;28;20087;-72
2022/07/06 06:39:15;;;;;;;0.00;0.00;;;14.90;99.90;;;;;;5050597;28;20133;-72
2022/07/06 06:41:40;;;;;;;0.00;0.00;;;14.70;99.90;;;;;;5052759;28;20060;-73
2022/07/06 06:44:06;;;;;;;0.00;0.00;;;14.60;99.90;;;;;;5052921;28;20041;-72
2022/07/06 06:46:31;;;;;;;0.00;0.00;;;14.50;99.90;;;;;;5052468;28;20044;-72
2022/07/06 06:48:57;;;;;;;0.00;0.00;;;14.50;99.90;;;;;;5052689;28;20064;-73
2022/07/06 06:51:22;;;;;;;0.00;0.00;;;14.60;99.90;;;;;;5052709;28;20070;-72
2022/07/06 06:53:48;;;;;;;0.00;0.00;;;14.60;99.90;;;;;;5052543;28;20463;-72
2022/07/06 06:56:13;;;;;;;0.00;0.00;;;14.60;99.90;;;;;;5053977;28;20033;-72
2022/07/06 06:58:39;;;;;;;0.00;0.00;;;14.50;99.90;;;;;;5060926;28;20068;-72
2022/07/06 07:01:05;;;;;;;0.00;0.00;;;14.40;99.90;;;;;;5062866;28;20044;-74
2022/07/06 07:03:31;;;;;;;0.00;0.00;;;14.30;99.90;;;;;;5062047;28;20133;-73
2022/07/06 07:05:57;;;;;;;0.00;0.00;;;14.40;99.90;;;;;;5061203;28;20094;-73
2022/07/06 07:08:23;;;;;;;0.08;0.05;;;14.40;99.90;;;;;;5060749;28;20041;-73
2022/07/06 07:10:49;;;;;;;0.40;0.30;;;14.50;99.90;;;;;;5056896;28;20045;-73
2022/07/06 07:13:15;;;;;;;0.00;0.00;;;14.70;99.90;;;;;;5034305;28;20061;-73
2022/07/06 07:15:40;;;;;;;22.27;0.45;;;15.00;99.90;;;;;;5054471;28;20044;-73
2022/07/06 07:18:06;;;;;;;0.00;0.00;;;15.10;99.90;;;;;;5055424;28;20041;-73
2022/07/06 07:20:33;;;;;;;0.00;0.00;;;15.10;99.90;;;;;;5055082;28;20052;-73
2022/07/06 07:22:59;;;;;;;0.00;0.00;;;15.10;99.90;;;;;;5054886;28;20084;-73
2022/07/06 07:25:25;;;;;;;0.00;0.00;;;16.20;99.90;;;;;;5037000;28;20052;-73
2022/07/06 07:27:51;;;;;;;0.13;0.10;;;17.70;99.90;;;;;;5055031;28;20045;-72
2022/07/06 07:30:16;;;;;;;0.00;0.00;;;19.30;99.90;;;;;;5055101;28;20033;-73
2022/07/06 07:32:42;;;;;;;0.47;0.43;;;21.00;99.90;;;;;;5036695;28;20048;-73
2022/07/06 07:35:08;;;;;;;0.00;0.00;;;22.10;99.90;;;;;;5054788;28;20049;-74
2022/07/06 07:37:34;;;;;;;0.65;0.52;;;23.20;97.90;;;;;;5054654;28;20044;-73
2022/07/06 07:40:00;;;;;;;0.00;0.00;;;22.80;70.10;;;;;;5054411;28;20483;-74
2022/07/06 07:42:26;;;;;;;0.38;0.32;;;22.80;56.80;;;;;;5054868;28;20124;-73
2022/07/06 07:44:51;;;;;;;0.08;0.08;;;21.70;67.10;;;;;;5054969;28;20537;-74
2022/07/06 07:47:17;;;;;;;0.00;0.00;;;20.80;73.00;;;;;;5054860;28;20067;-73
2022/07/06 07:49:43;;;;;;;0.00;0.00;;;20.30;90.80;;;;;;5053912;28;20384;-74
2022/07/06 07:52:09;;;;;;;0.45;0.40;;;19.50;97.20;;;;;;5054126;28;20052;-74
2022/07/06 07:54:34;;;;;;;0.00;0.00;;;18.90;99.90;;;;;;5054725;28;20041;-73
2022/07/06 07:57:00;;;;;;;0.00;0.00;;;18.90;99.90;;;;;;5025263;28;20053;-73
2022/07/06 07:59:25;;;;;;;0.00;0.00;;;19.00;99.90;;;;;;5054472;28;20399;-74
2022/07/06 08:01:51;;;;;;;2.45;0.32;;;19.00;99.90;;;;;;5054512;28;20056;-73
2022/07/06 08:04:17;;;;;;;0.17;0.00;;;19.20;99.90;;;;;;5054485;28;20041;-73
2022/07/06 08:06:43;;;;;;;0.08;0.08;;;20.30;99.50;;;;;;5054322;28;20044;-74
2022/07/06 08:09:08;;;;;;;0.00;0.00;;;21.30;94.70;;;;;;5054638;28;20385;-74
2022/07/06 08:11:35;;;;;;;0.03;0.03;;;22.80;79.30;;;;;;5054601;28;20143;-74
2022/07/06 08:14:01;;;;;;;1.35;0.55;;;23.50;49.40;;;;;;5054501;28;20064;-74
2022/07/06 08:16:27;;;;;;;0.68;0.35;;;23.80;37.80;;;;;;5054244;28;20128;-74
2022/07/06 08:18:53;;;;;;;0.00;0.00;;;24.10;28.80;;;;;;5054222;28;20120;-74
2022/07/06 08:21:18;;;;;;;0.15;0.15;;;23.20;35.30;;;;;;5054164;28;20066;-74
2022/07/06 08:23:44;;;;;;;0.10;0.10;;;22.10;39.20;;;;;;5054271;28;20076;-74
2022/07/06 08:26:10;;;;;;;0.00;0.00;;;21.10;33.00;;;;;;5054311;28;20129;-73
2022/07/06 08:28:35;;;;;;;0.20;0.20;;;20.00;50.00;;;;;;5054186;28;20044;-74
2022/07/06 08:31:01;;;;;;;0.00;0.00;;;19.30;52.80;;;;;;5053937;28;20049;-73
2022/07/06 08:33:26;;;;;;;0.30;0.25;;;19.20;64.10;;;;;;5052629;28;20526;-73
2022/07/06 08:35:52;;;;;;;7.32;1.08;;;19.10;74.00;;;;;;5053756;28;20037;-73
2022/07/06 08:38:18;;;;;;;0.00;0.00;;;20.10;69.50;;;;;;5053925;28;20128;-73
2022/07/06 08:40:47;;;;;;;0.00;0.00;;;21.10;54.20;;;;;;5053743;28;20048;-74
2022/07/06 08:43:14;;;;;;;0.00;0.00;;;22.00;38.60;;;;;;5053808;28;20048;-74
2022/07/06 08:45:43;;;;;;;0.00;0.00;;;22.70;28.20;;;;;;5053880;28;20052;-73
2022/07/06 08:48:09;;;;;;;0.00;0.00;;;23.30;18.40;;;;;;5053597;28;20049;-73
2022/07/06 08:50:35;;;;;;;0.00;0.00;;;23.10;26.50;;;;;;5053619;28;20518;-74
2022/07/06 08:53:02;;;;;;;0.00;0.00;;;22.90;20.40;;;;;;5053648;28;20049;-73
2022/07/06 08:55:27;;;;;;;0.00;0.00;;;22.90;10.90;;;;;;5053666;28;20073;-73
2022/07/06 08:57:55;;;;;;;0.00;0.00;;;22.60;7.20;;;;;;5053332;28;20088;-73
2022/07/06 09:00:25;;;;;;;0.00;0.00;;;22.50;11.70;;;;;;5053390;28;20067;-74
2022/07/06 09:02:53;;;;;;;0.00;0.00;;;22.50;5.80;;;;;;5052933;28;20205;-73
2022/07/06 09:05:21;;;;;;;0.00;0.00;;;22.20;9.90;;;;;;5053277;28;20484;-73
2022/07/06 09:07:49;;;;;;;0.00;0.00;;;22.50;14.30;;;;;;5053282;28;20037;-74
2022/07/06 09:10:17;;;;;;;1.45;0.65;;;22.50;10.20;;;;;;5053237;28;20534;-74
2022/07/06 09:12:43;;;;;;;0.38;0.15;;;22.30;12.30;;;;;;5053550;28;20041;-75
2022/07/06 09:15:08;;;;;;;0.55;0.32;;;22.60;13.10;;;;;;5053184;28;20098;-75
2022/07/06 09:17:38;;;;;;;0.80;0.32;;;23.70;14.40;;;;;;5052988;28;20041;-74
2022/07/06 09:20:11;;;;;;;0.17;0.15;;;25.00;12.00;;;;;;5053370;28;20377;-75
2022/07/06 09:22:37;;;;;;;0.00;0.00;;;24.80;12.90;;;;;;5052928;28;20487;-75
2022/07/06 09:25:05;;;;;;;0.00;0.00;;;24.80;6.70;;;;;;5052777;28;20091;-74
2022/07/06 09:27:31;;;;;;;0.00;0.00;;;24.40;9.80;;;;;;5052599;28;20526;-74
2022/07/06 09:30:01;;;;;;;3.72;0.90;;;23.20;11.30;;;;;;5051191;28;20033;-74
2022/07/06 09:32:27;;;;;;;0.00;0.00;;;22.50;18.60;;;;;;5049175;28;20043;-74
2022/07/06 09:34:54;;;;;;;0.20;0.10;;;21.70;23.50;;;;;;5052343;28;20457;-75
2022/07/06 09:37:23;;;;;;;0.00;0.00;;;21.00;25.40;;;;;;5052298;28;20116;-74
2022/07/06 09:39:49;;;;;;;0.05;0.05;;;20.50;34.60;;;;;;5049517;28;20403;-75
2022/07/06 09:42:14;;;;;;;0.00;0.00;;;19.30;54.30;;;;;;5052103;28;20044;-74
2022/07/06 09:44:41;;;;;;;0.80;0.20;;;19.10;68.70;;;;;;5052304;28;20087;-75
2022/07/06 09:47:09;;;;;;;0.00;0.00;;;19.20;74.00;;;;;;5051982;28;20037;-74
2022/07/06 09:49:36;;;;;;;0.00;0.00;;;19.50;70.10;;;;;;5052280;28;20044;-74
2022/07/06 09:52:07;;;;;;;0.00;0.00;;;19.60;74.20;;;;;;5051945;28;20037;-74
2022/07/06 09:54:34;;;;;;;0.00;0.00;;;19.60;70.50;;;;;;5049417;28;20088;-75
2022/07/06 09:57:01;;;;;;;0.00;0.00;;;20.30;73.50;;;;;;5056844;28;20056;-74
2022/07/06 09:59:30;;;;;;;0.00;0.00;;;21.20;56.50;;;;;;5061698;28;20048;-75
2022/07/06 10:01:58;;;;;;;0.03;0.03;;;21.90;42.40;;;;;;5061008;28;20520;-74
2022/07/06 10:04:25;;;;;;;0.63;0.52;;;22.30;34.30;;;;;;5067586;28;20048;-74
2022/07/06 10:06:51;;;;;;;0.13;0.13;;;22.30;27.00;;;;;;5072384;28;20387;-74
2022/07/06 10:09:18;;;;;;;0.00;0.00;;;22.80;23.60;;;;;;5070493;28;20090;-75
2022/07/06 10:11:49;;;;;;;0.00;0.00;;;23.10;24.00;;;;;;5071140;28;20039;-74
2022/07/06 10:14:19;;;;;;;0.00;0.00;;;23.40;25.50;;;;;;5053889;28;20558;-75
2022/07/06 10:16:46;;;;;;;0.70;0.38;;;23.70;23.80;;;;;;5072206;28;20036;-75
2022/07/06 10:19:13;;;;;;;0.00;0.00;;;23.90;18.90;;;;;;5072257;28;20446;-74
2022/07/06 10:21:40;;;;;;;0.15;0.15;;;23.60;13.00;;;;;;5062920;28;20091;-74
2022/07/06 10:24:07;;;;;;;0.00;0.00;;;23.50;18.40;;;;;;5061209;28;20040;-75
2022/07/06 10:26:34;;;;;;;0.00;0.00;;;23.60;13.10;;;;;;5057171;28;20558;-75
2022/07/06 10:29:02;;;;;;;0.00;0.00;;;23.00;17.30;;;;;;5057533;28;20033;-74
2022/07/06 10:31:29;;;;;;;0.00;0.00;;;22.90;15.90;;;;;;5052094;28;20550;-74
2022/07/06 10:33:56;;;;;;;0.00;0.00;;;22.70;17.90;;;;;;5052131;28;20080;-74
2022/07/06 10:36:23;;;;;;;0.00;0.00;;;22.40;20.30;;;;;;5051897;28;20045;-74
2022/07/06 10:38:50;;;;;;;0.10;0.10;;;22.80;24.00;;;;;;5051967;28;20071;-75
2022/07/06 10:41:16;;;;;;;0.05;0.05;;;23.20;18.90;;;;;;5052155;28;20052;-75
2022/07/06 10:43:43;;;;;;;0.00;0.00;;;23.40;15.10;;;;;;5052321;28;20407;-74
2022/07/06 10:46:15;;;;;;;0.15;0.15;;;23.60;11.90;;;;;;5057243;28;20041;-74
2022/07/06 10:48:42;;;;;;;0.95;0.45;;;23.90;11.70;;;;;;5060590;28;20040;-74
2022/07/06 10:51:10;;;;;;;0.00;0.00;;;24.50;9.10;;;;;;5042216;28;20053;-74
2022/07/06 10:53:39;;;;;;;0.80;0.55;;;24.50;4.70;;;;;;5057811;28;20060;-74
2022/07/06 10:56:07;;;;;;;0.00;0.00;;;24.90;7.20;;;;;;5063350;28;20052;-74
2022/07/06 10:58:53;;;;;;;0.00;0.00;;;24.70;3.50;;;;;;5051655;28;20045;-75
2022/07/06 11:01:20;;;;;;;;;;;24.30;3.90;;;;;;5052024;28;20095;-75
2022/07/06 11:04:12;;;;;;;0.32;0.20;;;23.70;7.00;;;;;;5051685;28;20011;-75
2022/07/06 11:06:39;;;;;;;0.00;0.00;;;23.60;7.50;;;;;;5045281;28;20126;-74
2022/07/06 11:09:06;;;;;;;1.85;0.20;;;24.30;3.70;;;;;;5051495;28;20037;-75
2022/07/06 11:11:34;;;;;;;0.00;0.00;;;25.00;3.70;;;;;;5033867;28;20068;-75
2022/07/06 11:14:15;;;;;;;0.08;0.08;;;25.10;1.70;;;;;;5049047;28;20060;-74
2022/07/06 11:16:47;;;;;;;0.25;0.15;;;24.40;1.00;;;;;;5049609;28;20056;-74
2022/07/06 11:19:14;;;;;;;0.00;0.00;;;24.20;1.00;;;;;;5051540;28;20037;-75
2022/07/06 11:21:41;;;;;;;0.00;0.00;;;23.70;1.80;;;;;;5051512;28;20080;-75
2022/07/06 11:24:09;;;;;;;0.00;0.00;;;23.90;2.70;;;;;;5051630;28;20052;-74
2022/07/06 11:26:36;;;;;;;0.22;0.20;;;25.00;2.80;;;;;;5052308;28;20055;-74
2022/07/06 11:29:05;;;;;;;0.30;0.20;;;26.10;1.00;;;;;;5054719;28;20040;-74
2022/07/06 11:31:32;;;;;;;0.75;0.43;;;26.90;1.00;;;;;;5054943;28;20037;-74
2022/07/06 11:33:58;;;;;;;0.00;0.00;;;27.10;1.00;;;;;;5054428;28;20072;-74
2022/07/06 11:36:23;;;;;;;0.10;0.05;;;26.50;1.00;;;;;;5054592;28;20053;-74
2022/07/06 11:38:50;;;;;;;0.00;0.00;;;27.40;1.00;;;;;;5054924;28;20094;-74
2022/07/06 11:41:16;;;;;;;0.00;0.00;;;27.70;1.00;;;;;;5054423;28;20041;-74
2022/07/06 11:43:47;;;;;;;0.00;0.00;;;26.60;1.00;;;;;;5054896;28;20083;-75
2022/07/06 11:46:19;;;;;;;0.00;0.00;;;25.60;1.00;;;;;;5051994;28;20037;-74
2022/07/06 11:48:50;;;;;;;0.55;0.28;;;24.90;1.00;;;;;;5054352;28;20063;-74
2022/07/06 11:51:16;;;;;;;0.00;0.00;;;24.30;1.00;;;;;;5054682;28;20052;-74
2022/07/06 11:53:51;;;;;;;0.00;0.00;;;23.70;1.00;;;;;;5054944;28;20044;-75
2022/07/06 11:56:35;;;;;;;0.68;0.68;;;23.60;2.20;;;;;;5057979;28;20399;-74
2022/07/06 11:59:01;;;;;;;0.35;0.08;;;23.40;1.60;;;;;;5075609;28;20064;-75
2022/07/06 12:01:30;;;;;;;0.40;0.20;;;24.00;4.50;;;;;;5075234;28;20150;-75
2022/07/06 12:04:03;;;;;;;0.00;0.00;;;25.40;1.00;;;;;;5074384;28;20102;-74
2022/07/06 12:06:30;;;;;;;0.60;0.52;;;26.20;1.00;;;;;;5074573;28;20474;-75
2022/07/06 12:09:03;;;;;;;0.17;0.15;;;25.60;1.00;;;;;;5074809;28;20395;-75
2022/07/06 12:11:31;;;;;;;0.00;0.00;;;26.00;1.00;;;;;;5074858;28;20079;-75
2022/07/06 12:14:00;;;;;;;0.22;0.22;;;25.50;1.00;;;;;;5074422;28;20047;-75
2022/07/06 12:16:31;;;;;;;0.10;0.10;;;25.60;1.00;;;;;;5074430;28;20538;-75
2022/07/06 12:18:57;;;;;;;0.00;0.00;;;26.70;1.00;;;;;;5074196;28;20175;-75
2022/07/06 12:21:22;;;;;;;0.00;0.00;;;27.20;1.00;;;;;;5074465;28;20098;-75
2022/07/06 12:23:50;;;;;;;0.93;0.30;;;26.70;1.00;;;;;;5074723;28;20569;-75
2022/07/06 12:26:17;;;;;;;0.00;0.00;;;26.30;1.00;;;;;;5074347;28;20495;-75
2022/07/06 12:28:43;;;;;;;0.00;0.00;;;26.80;1.00;;;;;;5074221;28;20049;-75
2022/07/06 12:31:10;;;;;;;0.38;0.20;;;26.60;1.00;;;;;;5074144;28;20115;-75
2022/07/06 12:33:36;;;;;;;0.50;0.10;;;25.20;1.00;;;;;;5073950;28;20044;-74
2022/07/06 12:36:15;;;;;;;0.00;0.00;;;25.70;1.00;;;;;;5073553;28;20040;-75
2022/07/06 12:38:46;;;;;;;0.00;0.00;;;25.80;1.00;;;;;;5073981;28;20044;-75
2022/07/06 12:41:24;;;;;;;0.13;0.08;;;25.80;1.00;;;;;;5074153;28;20466;-75
2022/07/06 12:44:00;;;;;;;0.00;0.00;;;25.70;1.00;;;;;;5074074;28;20059;-75
2022/07/06 12:46:31;;;;;;;0.15;0.08;;;25.40;1.00;;;;;;5073999;28;20045;-75
2022/07/06 12:48:58;;;;;;;0.00;0.00;;;25.50;1.00;;;;;;5055806;28;20475;-75
2022/07/06 12:51:24;;;;;;;0.68;0.43;;;25.70;1.00;;;;;;5073602;28;20098;-75